createdAt,value
2022-08-12T00:02:46.057Z,24.15
2022-08-12T00:06:08.105Z,24.19
2022-08-12T00:09:27.907Z,24.55
2022-08-12T00:12:48.105Z,24.46
2022-08-12T00:16:09.146Z,24.51
2022-08-12T00:19:29.238Z,24.41
2022-08-12T00:22:58.658Z,24.40
2022-08-12T00:26:22.975Z,24.49
2022-08-12T00:29:47.784Z,24.69
2022-08-12T00:33:09.761Z,24.56
2022-08-12T00:36:35.295Z,24.52
2022-08-12T00:39:58.024Z,24.65
2022-08-12T00:42:59.848Z,24.42
2022-08-12T00:46:19.899Z,24.60
2022-08-12T00:49:25.777Z,24.54
2022-08-12T00:52:27.319Z,24.48
2022-08-12T00:55:28.892Z,24.38
2022-08-12T00:58:31.798Z,24.52
2022-08-12T01:02:10.503Z,24.34
2022-08-12T01:05:19.027Z,24.28
2022-08-12T01:08:39.288Z,24.46
2022-08-12T01:11:40.791Z,24.51
2022-08-12T01:14:46.265Z,24.49
2022-08-12T01:17:49.140Z,24.40
2022-08-12T01:20:53.388Z,24.29
2022-08-12T01:24:30.391Z,24.20
2022-08-12T01:27:35.286Z,24.27
2022-08-12T01:30:39.995Z,24.27
2022-08-12T01:34:00.685Z,24.30
2022-08-12T01:37:02.909Z,24.21
2022-08-12T01:40:34.776Z,24.18
2022-08-12T01:43:27.378Z,24.35
2022-08-12T01:46:38.899Z,24.31
2022-08-12T01:49:40.273Z,24.30
2022-08-12T01:52:53.822Z,24.30
2022-08-12T01:55:56.516Z,24.30
2022-08-12T01:59:20.858Z,24.24
2022-08-12T02:02:35.026Z,24.28
2022-08-12T02:06:04.436Z,24.31
2022-08-12T02:09:29.426Z,24.43
2022-08-12T02:12:42.880Z,24.35
2022-08-12T02:16:06.842Z,24.27
2022-08-12T02:19:30.138Z,24.38
2022-08-12T02:22:34.744Z,24.47
2022-08-12T02:25:45.707Z,24.49
2022-08-12T02:28:47.784Z,24.20
2022-08-12T02:31:50.238Z,23.97
2022-08-12T02:34:52.677Z,24.33
2022-08-12T02:37:57.626Z,24.22
2022-08-12T02:41:03.181Z,24.02
2022-08-12T02:44:09.114Z,24.08
2022-08-12T02:47:58.631Z,23.80
2022-08-12T02:50:36.548Z,23.93
2022-08-12T02:53:39.100Z,23.95
2022-08-12T02:56:50.694Z,23.98
2022-08-12T02:59:53.905Z,23.90
2022-08-12T03:02:59.769Z,23.70
2022-08-12T03:06:07.119Z,23.76
2022-08-12T03:09:13.497Z,23.70
2022-08-12T03:12:20.180Z,23.48
2022-08-12T03:15:23.863Z,23.26
2022-08-12T03:18:32.774Z,23.26
2022-08-12T03:21:52.998Z,23.01
2022-08-12T03:25:05.333Z,23.29
2022-08-12T03:28:11.609Z,23.30
2022-08-12T03:31:33.596Z,23.06
2022-08-12T03:34:37.324Z,22.95
2022-08-12T03:37:40.215Z,23.08
2022-08-12T03:41:23.947Z,22.90
2022-08-12T03:44:52.758Z,22.89
2022-08-12T03:48:19.301Z,23.02
2022-08-12T03:51:39.755Z,22.80
2022-08-12T03:54:59.899Z,22.66
2022-08-12T03:58:20.475Z,22.81
2022-08-12T04:01:28.171Z,22.82
2022-08-12T04:04:36.041Z,22.83
2022-08-12T04:07:37.798Z,22.70
2022-08-12T04:11:45.661Z,22.73
2022-08-12T04:14:49.722Z,22.55
2022-08-12T04:18:06.716Z,22.55
2022-08-12T04:21:12.673Z,22.23
2022-08-12T04:24:14.236Z,22.69
2022-08-12T04:27:15.718Z,22.43
2022-08-12T04:30:32.696Z,22.33
2022-08-12T04:33:36.384Z,22.24
2022-08-12T04:36:40.626Z,22.22
2022-08-12T04:39:43.220Z,21.90
2022-08-12T04:42:45.624Z,21.91
2022-08-12T04:45:49.355Z,21.88
2022-08-12T04:48:54.499Z,21.69
2022-08-12T04:51:59.099Z,21.57
2022-08-12T04:55:01.491Z,21.62
2022-08-12T04:58:03.051Z,21.93
2022-08-12T05:01:05.226Z,21.85
2022-08-12T05:04:08.280Z,21.51
2022-08-12T05:07:09.875Z,21.79
2022-08-12T05:10:11.465Z,21.54
2022-08-12T05:13:16.710Z,21.57
2022-08-12T05:16:18.343Z,21.34
2022-08-12T05:19:29.418Z,21.48
2022-08-12T05:22:32.490Z,21.35
2022-08-12T05:25:38.744Z,21.38
2022-08-12T05:28:41.134Z,21.43
2022-08-12T05:31:48.403Z,21.26
2022-08-12T05:34:50.641Z,21.20
2022-08-12T05:38:15.045Z,21.09
2022-08-12T05:41:20.331Z,20.93
2022-08-12T05:44:21.838Z,20.84
2022-08-12T05:47:23.317Z,20.67
2022-08-12T05:50:43.412Z,20.82
2022-08-12T05:53:45.242Z,20.71
2022-08-12T05:56:48.279Z,20.80
2022-08-12T05:59:49.789Z,20.81
2022-08-12T06:03:01.016Z,20.92
2022-08-12T06:06:04.539Z,20.92
2022-08-12T06:09:05.978Z,21.09
2022-08-12T06:12:07.830Z,21.16
2022-08-12T06:15:09.806Z,20.97
2022-08-12T06:18:15.952Z,21.22
2022-08-12T06:21:23.687Z,21.19
2022-08-12T06:24:28.591Z,21.15
2022-08-12T06:27:30.054Z,21.85
2022-08-12T06:30:38.496Z,22.16
2022-08-12T06:34:00.625Z,22.07
2022-08-12T06:37:07.314Z,22.02
2022-08-12T06:40:10.548Z,21.82
2022-08-12T06:43:13.434Z,22.15
2022-08-12T06:46:14.925Z,22.33
2022-08-12T06:49:16.400Z,22.14
2022-08-12T06:52:24.249Z,22.48
2022-08-12T06:55:26.057Z,22.88
2022-08-12T06:58:29.330Z,23.07
2022-08-12T07:01:32.074Z,22.88
2022-08-12T07:04:37.946Z,23.09
2022-08-12T07:07:41.730Z,23.34
2022-08-12T07:10:45.755Z,23.39
2022-08-12T07:14:11.968Z,23.57
2022-08-12T07:17:13.902Z,23.90
2022-08-12T07:20:49.858Z,24.14
2022-08-12T07:23:41.578Z,24.26
2022-08-12T07:26:44.611Z,24.59
2022-08-12T07:29:57.876Z,24.46
2022-08-12T07:33:09.243Z,24.47
2022-08-12T07:36:13.867Z,24.53
2022-08-12T07:39:15.476Z,24.75
2022-08-12T07:42:17.139Z,24.77
2022-08-12T07:45:20.518Z,24.74
2022-08-12T07:48:24.202Z,24.68
2022-08-12T07:51:26.051Z,24.72
2022-08-12T07:54:27.575Z,24.98
2022-08-12T07:57:29.032Z,25.03
2022-08-12T08:00:34.178Z,25.01
2022-08-12T08:03:36.722Z,25.33
2022-08-12T08:06:49.718Z,25.48
2022-08-12T08:09:58.659Z,25.57
2022-08-12T08:13:05.046Z,25.71
2022-08-12T08:16:08.214Z,25.68
2022-08-12T08:19:19.190Z,25.84
2022-08-12T08:22:40.509Z,25.90
2022-08-12T08:25:44.681Z,26.14
2022-08-12T08:28:46.866Z,26.16
2022-08-12T08:31:59.864Z,26.16
2022-08-12T08:35:01.285Z,26.20
2022-08-12T08:38:08.400Z,26.09
2022-08-12T08:42:18.915Z,26.33
2022-08-12T08:44:58.796Z,26.70
2022-08-12T08:48:00.678Z,26.82
2022-08-12T08:51:06.078Z,26.93
2022-08-12T08:54:08.578Z,26.88
2022-08-12T08:57:10.151Z,27.05
2022-08-12T09:00:15.526Z,26.83
2022-08-12T09:05:09.476Z,27.03
2022-08-12T09:06:53.650Z,27.07
2022-08-12T09:10:02.032Z,27.01
2022-08-12T09:14:10.187Z,27.19
2022-08-12T09:16:45.890Z,27.44
2022-08-12T09:19:57.467Z,27.62
2022-08-12T09:23:01.467Z,27.52
2022-08-12T09:26:09.809Z,27.63
2022-08-12T09:29:14.278Z,27.65
2022-08-12T09:32:56.321Z,28.03
2022-08-12T09:35:42.896Z,27.95
2022-08-12T09:38:58.984Z,28.25
2022-08-12T09:42:39.128Z,27.77
2022-08-12T09:46:06.328Z,27.85
2022-08-12T09:49:13.577Z,28.08
2022-08-12T09:52:19.055Z,28.10
2022-08-12T09:56:06.552Z,27.82
2022-08-12T09:59:00.042Z,28.15
2022-08-12T10:02:53.159Z,28.30
2022-08-12T10:06:11.899Z,28.37
2022-08-12T10:08:52.385Z,28.78
2022-08-12T10:12:13.237Z,28.57
2022-08-12T10:15:15.266Z,28.62
2022-08-12T10:18:52.083Z,28.26
2022-08-12T10:21:56.847Z,28.60
2022-08-12T10:25:17.365Z,28.46
2022-08-12T10:28:38.888Z,28.66
2022-08-12T10:32:19.521Z,28.75
2022-08-12T10:35:02.141Z,28.56
2022-08-12T10:38:38.983Z,29.05
2022-08-12T10:41:56.980Z,28.83
2022-08-12T10:45:06.315Z,29.29
2022-08-12T10:48:21.608Z,29.70
2022-08-12T10:51:56.474Z,29.11
2022-08-12T10:54:52.964Z,29.07
2022-08-12T10:58:15.560Z,29.17
2022-08-12T11:01:50.212Z,29.90
2022-08-12T11:04:48.853Z,30.00
2022-08-12T11:08:37.583Z,29.69
2022-08-12T11:11:27.661Z,30.20
2022-08-12T11:14:49.863Z,29.39
2022-08-12T11:17:55.722Z,29.81
2022-08-12T11:20:59.208Z,29.96
2022-08-12T11:24:01.702Z,30.45
2022-08-12T11:27:08.724Z,30.53
2022-08-12T11:30:31.145Z,30.04
2022-08-12T11:34:06.466Z,30.27
2022-08-12T11:37:07.180Z,30.69
2022-08-12T11:40:28.729Z,30.76
2022-08-12T11:43:30.907Z,30.33
2022-08-12T11:46:36.648Z,30.19
2022-08-12T11:49:38.105Z,30.49
2022-08-12T11:52:56.791Z,30.48
2022-08-12T11:55:58.728Z,30.46
2022-08-12T12:02:02.996Z,31.12
2022-08-12T12:02:21.801Z,30.85
2022-08-12T12:05:28.593Z,31.05
2022-08-12T12:08:47.018Z,31.45
2022-08-12T12:11:52.674Z,31.98
2022-08-12T12:14:57.924Z,31.25
2022-08-12T12:18:01.935Z,31.87
2022-08-12T12:21:08.389Z,31.96
2022-08-12T12:24:09.922Z,31.80
2022-08-12T12:27:11.402Z,31.59
2022-08-12T12:30:29.833Z,31.96
2022-08-12T12:33:57.366Z,32.39
2022-08-12T12:36:54.896Z,32.24
2022-08-12T12:39:59.701Z,32.48
2022-08-12T12:43:05.212Z,31.98
2022-08-12T12:46:07.199Z,31.84
2022-08-12T12:49:10.984Z,31.70
2022-08-12T12:52:18.923Z,31.52
2022-08-12T12:55:22.875Z,31.99
2022-08-12T12:58:24.431Z,32.05
2022-08-12T13:01:31.071Z,32.70
2022-08-12T13:04:35.163Z,32.98
2022-08-12T13:07:54.514Z,32.58
2022-08-12T13:11:00.651Z,32.66
2022-08-12T13:14:09.923Z,32.10
2022-08-12T13:17:17.461Z,31.56
2022-08-12T13:20:37.482Z,32.19
2022-08-12T13:23:44.813Z,32.12
2022-08-12T13:26:46.350Z,32.21
2022-08-12T13:29:48.959Z,32.76
2022-08-12T13:32:58.761Z,32.31
2022-08-12T13:36:04.734Z,32.05
2022-08-12T13:39:09.522Z,32.79
2022-08-12T13:42:14.219Z,33.44
2022-08-12T13:45:16.664Z,32.56
2022-08-12T13:48:19.717Z,32.80
2022-08-12T13:51:24.628Z,32.94
2022-08-12T13:54:26.287Z,32.63
2022-08-12T13:57:46.927Z,32.52
2022-08-12T14:00:53.526Z,33.18
2022-08-12T14:03:55.078Z,33.51
2022-08-12T14:06:58.276Z,33.14
2022-08-12T14:10:20.248Z,33.29
2022-08-12T14:14:03.444Z,33.02
2022-08-12T14:16:52.095Z,32.98
2022-08-12T14:20:12.015Z,33.40
2022-08-12T14:24:01.318Z,33.25
2022-08-12T14:26:36.261Z,32.96
2022-08-12T14:30:04.967Z,33.38
2022-08-12T14:33:03.470Z,32.85
2022-08-12T14:36:08.679Z,33.04
2022-08-12T14:39:10.282Z,32.45
2022-08-12T14:42:14.068Z,32.04
2022-08-12T14:45:16.217Z,32.71
2022-08-12T14:48:24.708Z,32.51
2022-08-12T14:52:55.507Z,33.03
2022-08-12T14:58:11.179Z,32.90
2022-08-12T15:01:31.598Z,32.24
2022-08-12T15:04:33.075Z,32.69
2022-08-12T15:07:51.215Z,32.66
2022-08-12T15:10:57.254Z,32.09
2022-08-12T15:13:59.689Z,32.53
2022-08-12T15:17:01.211Z,33.68
2022-08-12T15:20:11.241Z,32.94
2022-08-12T15:23:33.005Z,33.82
2022-08-12T15:26:40.895Z,33.31
2022-08-12T15:29:42.478Z,32.87
2022-08-12T15:32:48.648Z,32.74
2022-08-12T15:35:53.219Z,33.10
2022-08-12T15:38:55.918Z,32.66
2022-08-12T15:42:01.956Z,32.44
2022-08-12T15:45:04.277Z,32.11
2022-08-12T15:48:17.056Z,31.48
2022-08-12T15:51:58.854Z,30.97
2022-08-12T15:54:51.728Z,31.23
2022-08-12T15:57:55.003Z,31.15
2022-08-12T16:00:56.432Z,31.22
2022-08-12T16:04:00.798Z,32.01
2022-08-12T16:07:09.274Z,32.65
2022-08-12T16:10:12.274Z,32.16
2022-08-12T16:13:25.109Z,32.00
2022-08-12T16:16:35.418Z,32.03
2022-08-12T16:20:03.519Z,31.82
2022-08-12T16:23:04.409Z,31.95
2022-08-12T16:26:20.310Z,31.89
2022-08-12T16:29:38.575Z,31.52
2022-08-12T16:32:54.644Z,30.90
2022-08-12T16:35:56.120Z,30.80
2022-08-12T16:39:01.532Z,31.52
2022-08-12T16:42:03.694Z,32.41
2022-08-12T16:45:08.284Z,33.17
2022-08-12T16:48:09.799Z,33.91
2022-08-12T16:51:31.341Z,34.76
2022-08-12T16:54:39.533Z,34.15
2022-08-12T16:57:44.280Z,34.55
2022-08-12T17:00:48.595Z,33.58
2022-08-12T17:04:09.035Z,34.01
2022-08-12T17:07:15.405Z,34.99
2022-08-12T17:10:35.940Z,34.20
2022-08-12T17:13:53.123Z,33.54
2022-08-12T17:16:55.761Z,32.41
2022-08-12T17:20:35.599Z,32.61
2022-08-12T17:23:33.225Z,32.22
2022-08-12T17:26:56.331Z,31.61
2022-08-12T17:30:04.200Z,31.28
2022-08-12T17:33:07.785Z,31.11
2022-08-12T17:36:10.670Z,30.82
2022-08-12T17:39:13.512Z,30.43
2022-08-12T17:42:34.894Z,30.66
2022-08-12T17:45:47.295Z,30.12
2022-08-12T17:48:55.554Z,30.14
2022-08-12T17:52:02.519Z,30.23
2022-08-12T17:55:40.696Z,30.40
2022-08-12T17:58:35.548Z,29.95
2022-08-12T18:01:44.309Z,29.59
2022-08-12T18:05:05.337Z,29.64
2022-08-12T18:08:11.025Z,29.51
2022-08-12T18:12:04.696Z,28.89
2022-08-12T18:15:01.052Z,28.81
2022-08-12T18:18:04.049Z,28.79
2022-08-12T18:21:08.532Z,28.73
2022-08-12T18:24:22.005Z,28.67
2022-08-12T18:27:44.667Z,28.28
2022-08-12T18:30:53.525Z,28.15
2022-08-12T18:34:00.856Z,28.11
2022-08-12T18:37:11.742Z,27.94
2022-08-12T18:40:45.620Z,27.71
2022-08-12T18:43:59.282Z,27.43
2022-08-12T18:47:06.315Z,27.15
2022-08-12T18:50:13.383Z,27.13
2022-08-12T18:54:05.116Z,26.96
2022-08-12T18:56:39.915Z,26.81
2022-08-12T19:00:02.130Z,26.51
2022-08-12T19:03:06.176Z,26.45
2022-08-12T19:06:28.156Z,26.05
2022-08-12T19:09:58.862Z,26.11
2022-08-12T19:13:23.184Z,25.58
2022-08-12T19:16:25.881Z,25.72
2022-08-12T19:19:27.729Z,25.58
2022-08-12T19:22:40.491Z,25.40
2022-08-12T19:26:01.207Z,25.48
2022-08-12T19:29:07.440Z,25.62
2022-08-12T19:32:14.199Z,25.43
2022-08-12T19:38:37.698Z,24.90
2022-08-12T19:42:00.539Z,24.90
2022-08-12T19:45:05.084Z,24.86
2022-08-12T19:48:16.598Z,24.68
2022-08-12T19:51:33.167Z,24.48
2022-08-12T19:54:35.445Z,24.58
2022-08-12T19:57:42.496Z,24.39
2022-08-12T20:00:58.415Z,24.32
2022-08-12T20:04:00.998Z,24.39
2022-08-12T20:07:03.033Z,24.23
2022-08-12T20:10:09.431Z,24.00
2022-08-12T20:13:18.299Z,24.14
2022-08-12T20:16:47.489Z,23.93
2022-08-12T20:20:16.423Z,23.64
2022-08-12T20:23:08.843Z,23.54
2022-08-12T20:26:11.141Z,23.52
2022-08-12T20:29:14.069Z,23.44
2022-08-12T20:32:20.596Z,23.27
2022-08-12T20:36:05.836Z,23.34
2022-08-12T20:38:54.196Z,23.25
2022-08-12T20:42:07.126Z,23.31
2022-08-12T20:45:09.556Z,23.22
2022-08-12T20:48:12.516Z,22.98
2022-08-12T20:51:19.256Z,22.84
2022-08-12T20:54:21.987Z,22.79
2022-08-12T20:57:23.720Z,22.72
2022-08-12T21:00:28.317Z,22.56
2022-08-12T21:03:52.850Z,22.72
2022-08-12T21:07:08.927Z,22.70
2022-08-12T21:10:12.367Z,22.52
2022-08-12T21:13:20.363Z,22.52
2022-08-12T21:16:35.328Z,22.65
2022-08-12T21:19:52.731Z,22.56
2022-08-12T21:22:55.746Z,22.43
2022-08-12T21:26:01.376Z,22.48
2022-08-12T21:29:10.280Z,22.41
2022-08-12T21:32:40.135Z,22.18
2022-08-12T21:35:35.827Z,22.25
2022-08-12T21:38:41.485Z,22.17
2022-08-12T21:41:43.038Z,22.25
2022-08-12T21:45:46.652Z,22.01
2022-08-12T21:48:08.425Z,22.17
2022-08-12T21:51:23.066Z,22.16
2022-08-12T21:54:25.000Z,21.82
2022-08-12T21:57:36.276Z,22.19
2022-08-12T22:00:53.021Z,22.18
2022-08-12T22:04:13.119Z,22.39
2022-08-12T22:07:18.593Z,22.67
2022-08-12T22:10:28.188Z,22.43
2022-08-12T22:14:07.746Z,22.38
2022-08-12T22:16:55.639Z,22.54
2022-08-12T22:19:57.259Z,22.51
2022-08-12T22:23:00.334Z,22.84
2022-08-12T22:26:05.639Z,23.26
2022-08-12T22:29:27.849Z,23.46
2022-08-12T22:32:29.962Z,23.16
2022-08-12T22:35:56.664Z,23.13
2022-08-12T22:38:55.672Z,23.90
2022-08-12T22:42:19.750Z,24.16
2022-08-12T22:45:56.292Z,24.27
2022-08-12T22:49:00.603Z,24.23
2022-08-12T22:52:10.415Z,24.18
2022-08-12T22:55:19.278Z,24.09
2022-08-12T22:58:41.256Z,24.15
2022-08-12T23:02:01.075Z,24.18
2022-08-12T23:05:03.815Z,24.32
2022-08-12T23:08:07.550Z,24.23
2022-08-12T23:11:17.922Z,24.30
2022-08-12T23:14:26.978Z,24.07
2022-08-12T23:17:40.267Z,24.08
2022-08-12T23:20:43.146Z,23.85
2022-08-12T23:24:09.152Z,23.94
2022-08-12T23:27:50.877Z,23.97
2022-08-12T23:30:50.253Z,23.94
2022-08-12T23:34:00.621Z,23.67
2022-08-12T23:37:06.729Z,23.73
2022-08-12T23:40:15.028Z,23.76
2022-08-12T23:43:18.110Z,23.60
2022-08-12T23:46:25.736Z,23.55
2022-08-12T23:49:57.989Z,23.74
2022-08-12T23:52:51.515Z,23.69
2022-08-12T23:55:54.786Z,23.75
2022-08-12T23:58:58.417Z,23.78
